sensor_id;sensor_type;location;lat;lon;timestamp;P1;durP1;ratioP1;P2;durP2;ratioP2
46931;SDS011;32670;51.464;11.964;2023-05-27T00:02:14;3.53;;;2.37;;
46931;SDS011;32670;51.464;11.964;2023-05-27T00:04:40;4.10;;;2.20;;
46931;SDS011;32670;51.464;11.964;2023-05-27T00:07:05;3.63;;;2.27;;
46931;SDS011;32670;51.464;11.964;2023-05-27T00:09:31;3.83;;;2.00;;
46931;SDS011;32670;51.464;11.964;2023-05-27T00:11:56;2.67;;;2.00;;
46931;SDS011;32670;51.464;11.964;2023-05-27T00:14:22;2.63;;;1.90;;
46931;SDS011;32670;51.464;11.964;2023-05-27T00:16:47;4.00;;;2.20;;
46931;SDS011;32670;51.464;11.964;2023-05-27T00:19:14;3.30;;;2.23;;
46931;SDS011;32670;51.464;11.964;2023-05-27T00:21:41;2.50;;;2.07;;
46931;SDS011;32670;51.464;11.964;2023-05-27T00:24:07;5.87;;;2.17;;
46931;SDS011;32670;51.464;11.964;2023-05-27T00:26:33;3.00;;;1.90;;
46931;SDS011;32670;51.464;11.964;2023-05-27T00:28:58;2.17;;;1.97;;
46931;SDS011;32670;51.464;11.964;2023-05-27T00:31:24;2.80;;;2.00;;
46931;SDS011;32670;51.464;11.964;2023-05-27T00:33:50;2.57;;;1.83;;
46931;SDS011;32670;51.464;11.964;2023-05-27T00:36:15;2.80;;;1.93;;
46931;SDS011;32670;51.464;11.964;2023-05-27T00:38:42;4.00;;;1.80;;
46931;SDS011;32670;51.464;11.964;2023-05-27T00:41:07;2.57;;;2.20;;
46931;SDS011;32670;51.464;11.964;2023-05-27T00:43:36;2.50;;;1.93;;
46931;SDS011;32670;51.464;11.964;2023-05-27T00:46:02;2.40;;;1.97;;
46931;SDS011;32670;51.464;11.964;2023-05-27T00:48:27;4.10;;;2.10;;
46931;SDS011;32670;51.464;11.964;2023-05-27T00:50:54;2.70;;;2.00;;
46931;SDS011;32670;51.464;11.964;2023-05-27T00:53:20;4.30;;;2.30;;
46931;SDS011;32670;51.464;11.964;2023-05-27T00:55:46;2.30;;;2.10;;
46931;SDS011;32670;51.464;11.964;2023-05-27T00:58:12;2.37;;;1.97;;
46931;SDS011;32670;51.464;11.964;2023-05-27T01:00:38;2.20;;;1.83;;
46931;SDS011;32670;51.464;11.964;2023-05-27T01:03:04;2.50;;;1.90;;
46931;SDS011;32670;51.464;11.964;2023-05-27T01:05:31;1.87;;;1.70;;
46931;SDS011;32670;51.464;11.964;2023-05-27T01:07:59;1.93;;;1.83;;
46931;SDS011;32670;51.464;11.964;2023-05-27T01:10:51;2.30;;;1.90;;
46931;SDS011;32670;51.464;11.964;2023-05-27T01:16:15;2.33;;;2.00;;
46931;SDS011;32670;51.464;11.964;2023-05-27T01:18:44;2.03;;;1.80;;
46931;SDS011;32670;51.464;11.964;2023-05-27T01:21:11;2.33;;;1.80;;
46931;SDS011;32670;51.464;11.964;2023-05-27T01:23:38;2.87;;;1.53;;
46931;SDS011;32670;51.464;11.964;2023-05-27T01:26:11;2.43;;;1.80;;
46931;SDS011;32670;51.464;11.964;2023-05-27T01:28:36;2.67;;;1.80;;
46931;SDS011;32670;51.464;11.964;2023-05-27T01:31:19;2.03;;;1.63;;
46931;SDS011;32670;51.464;11.964;2023-05-27T01:33:52;1.83;;;1.70;;
46931;SDS011;32670;51.464;11.964;2023-05-27T01:36:24;4.43;;;1.90;;
46931;SDS011;32670;51.464;11.964;2023-05-27T01:38:52;3.83;;;1.80;;
46931;SDS011;32670;51.464;11.964;2023-05-27T01:41:19;2.80;;;1.80;;
46931;SDS011;32670;51.464;11.964;2023-05-27T01:43:46;1.87;;;1.70;;
46931;SDS011;32670;51.464;11.964;2023-05-27T01:46:12;2.20;;;1.90;;
46931;SDS011;32670;51.464;11.964;2023-05-27T01:48:38;2.30;;;2.10;;
46931;SDS011;32670;51.464;11.964;2023-05-27T01:51:04;2.67;;;1.70;;
46931;SDS011;32670;51.464;11.964;2023-05-27T01:53:30;2.57;;;2.37;;
46931;SDS011;32670;51.464;11.964;2023-05-27T01:55:55;4.40;;;2.13;;
46931;SDS011;32670;51.464;11.964;2023-05-27T01:58:21;2.63;;;2.10;;
46931;SDS011;32670;51.464;11.964;2023-05-27T02:00:46;3.53;;;1.90;;
46931;SDS011;32670;51.464;11.964;2023-05-27T02:03:12;5.87;;;2.27;;
46931;SDS011;32670;51.464;11.964;2023-05-27T02:05:37;2.63;;;2.17;;
46931;SDS011;32670;51.464;11.964;2023-05-27T02:08:02;3.73;;;2.40;;
46931;SDS011;32670;51.464;11.964;2023-05-27T02:10:28;2.60;;;2.40;;
46931;SDS011;32670;51.464;11.964;2023-05-27T02:12:54;2.47;;;2.27;;
46931;SDS011;32670;51.464;11.964;2023-05-27T02:15:19;5.23;;;2.43;;
46931;SDS011;32670;51.464;11.964;2023-05-27T02:17:48;5.67;;;2.73;;
46931;SDS011;32670;51.464;11.964;2023-05-27T02:20:19;2.83;;;2.53;;
46931;SDS011;32670;51.464;11.964;2023-05-27T02:22:45;3.17;;;2.87;;
46931;SDS011;32670;51.464;11.964;2023-05-27T02:25:11;2.87;;;2.57;;
46931;SDS011;32670;51.464;11.964;2023-05-27T02:27:36;4.17;;;2.63;;
46931;SDS011;32670;51.464;11.964;2023-05-27T02:30:02;3.63;;;2.60;;
46931;SDS011;32670;51.464;11.964;2023-05-27T02:32:28;6.47;;;3.10;;
46931;SDS011;32670;51.464;11.964;2023-05-27T02:34:53;3.63;;;2.60;;
46931;SDS011;32670;51.464;11.964;2023-05-27T02:37:18;2.97;;;2.57;;
46931;SDS011;32670;51.464;11.964;2023-05-27T02:39:44;4.03;;;2.60;;
46931;SDS011;32670;51.464;11.964;2023-05-27T02:42:09;3.00;;;2.70;;
46931;SDS011;32670;51.464;11.964;2023-05-27T02:44:35;3.20;;;2.90;;
46931;SDS011;32670;51.464;11.964;2023-05-27T02:47:01;2.77;;;2.57;;
46931;SDS011;32670;51.464;11.964;2023-05-27T02:49:27;4.70;;;2.57;;
46931;SDS011;32670;51.464;11.964;2023-05-27T02:51:52;3.37;;;2.60;;
46931;SDS011;32670;51.464;11.964;2023-05-27T02:54:18;2.97;;;2.60;;
46931;SDS011;32670;51.464;11.964;2023-05-27T02:56:43;2.77;;;2.57;;
46931;SDS011;32670;51.464;11.964;2023-05-27T02:59:08;3.07;;;2.80;;
46931;SDS011;32670;51.464;11.964;2023-05-27T03:01:34;3.07;;;2.70;;
46931;SDS011;32670;51.464;11.964;2023-05-27T03:04:00;3.37;;;2.60;;
46931;SDS011;32670;51.464;11.964;2023-05-27T03:06:26;3.13;;;2.73;;
46931;SDS011;32670;51.464;11.964;2023-05-27T03:08:52;6.20;;;2.53;;
46931;SDS011;32670;51.464;11.964;2023-05-27T03:11:17;5.10;;;2.83;;
46931;SDS011;32670;51.464;11.964;2023-05-27T03:13:43;3.37;;;2.77;;
46931;SDS011;32670;51.464;11.964;2023-05-27T03:16:08;7.97;;;2.93;;
46931;SDS011;32670;51.464;11.964;2023-05-27T03:18:33;2.90;;;2.70;;
46931;SDS011;32670;51.464;11.964;2023-05-27T03:20:59;2.73;;;2.53;;
46931;SDS011;32670;51.464;11.964;2023-05-27T03:23:26;2.90;;;2.70;;
46931;SDS011;32670;51.464;11.964;2023-05-27T03:25:51;3.50;;;2.80;;
46931;SDS011;32670;51.464;11.964;2023-05-27T03:28:17;4.60;;;3.00;;
46931;SDS011;32670;51.464;11.964;2023-05-27T03:30:42;2.90;;;2.63;;
46931;SDS011;32670;51.464;11.964;2023-05-27T03:33:08;3.70;;;2.87;;
46931;SDS011;32670;51.464;11.964;2023-05-27T03:35:34;2.90;;;2.70;;
46931;SDS011;32670;51.464;11.964;2023-05-27T03:37:59;4.03;;;2.83;;
46931;SDS011;32670;51.464;11.964;2023-05-27T03:40:25;2.90;;;2.70;;
46931;SDS011;32670;51.464;11.964;2023-05-27T03:42:50;2.90;;;2.60;;
46931;SDS011;32670;51.464;11.964;2023-05-27T03:45:16;3.33;;;3.03;;
46931;SDS011;32670;51.464;11.964;2023-05-27T03:47:41;3.23;;;2.50;;
46931;SDS011;32670;51.464;11.964;2023-05-27T03:50:07;4.40;;;2.73;;
46931;SDS011;32670;51.464;11.964;2023-05-27T03:52:32;3.03;;;2.70;;
46931;SDS011;32670;51.464;11.964;2023-05-27T03:54:58;2.60;;;2.40;;
46931;SDS011;32670;51.464;11.964;2023-05-27T03:57:23;3.07;;;2.73;;
46931;SDS011;32670;51.464;11.964;2023-05-27T03:59:49;3.40;;;3.10;;
46931;SDS011;32670;51.464;11.964;2023-05-27T04:02:14;3.60;;;2.90;;
46931;SDS011;32670;51.464;11.964;2023-05-27T04:04:40;2.90;;;2.70;;
46931;SDS011;32670;51.464;11.964;2023-05-27T04:07:05;2.80;;;2.60;;
46931;SDS011;32670;51.464;11.964;2023-05-27T04:09:32;2.63;;;2.43;;
46931;SDS011;32670;51.464;11.964;2023-05-27T04:11:57;3.60;;;2.90;;
46931;SDS011;32670;51.464;11.964;2023-05-27T04:14:23;3.00;;;2.70;;
46931;SDS011;32670;51.464;11.964;2023-05-27T04:16:48;3.07;;;2.77;;
46931;SDS011;32670;51.464;11.964;2023-05-27T04:19:14;3.43;;;3.13;;
46931;SDS011;32670;51.464;11.964;2023-05-27T04:21:40;3.00;;;2.70;;
46931;SDS011;32670;51.464;11.964;2023-05-27T04:24:05;2.80;;;2.60;;
46931;SDS011;32670;51.464;11.964;2023-05-27T04:26:31;3.00;;;2.80;;
46931;SDS011;32670;51.464;11.964;2023-05-27T04:28:57;3.93;;;2.70;;
46931;SDS011;32670;51.464;11.964;2023-05-27T04:31:26;3.07;;;2.70;;
46931;SDS011;32670;51.464;11.964;2023-05-27T04:33:53;3.00;;;2.57;;
46931;SDS011;32670;51.464;11.964;2023-05-27T04:36:19;3.37;;;2.57;;
46931;SDS011;32670;51.464;11.964;2023-05-27T04:38:49;4.23;;;2.70;;
46931;SDS011;32670;51.464;11.964;2023-05-27T04:41:16;3.90;;;2.47;;
46931;SDS011;32670;51.464;11.964;2023-05-27T04:43:41;3.07;;;2.60;;
46931;SDS011;32670;51.464;11.964;2023-05-27T04:46:07;5.00;;;2.60;;
46931;SDS011;32670;51.464;11.964;2023-05-27T04:48:33;4.27;;;2.63;;
46931;SDS011;32670;51.464;11.964;2023-05-27T04:51:00;2.60;;;2.40;;
46931;SDS011;32670;51.464;11.964;2023-05-27T04:53:25;2.80;;;2.60;;
46931;SDS011;32670;51.464;11.964;2023-05-27T04:55:51;2.67;;;2.47;;
46931;SDS011;32670;51.464;11.964;2023-05-27T04:58:16;2.70;;;2.50;;
46931;SDS011;32670;51.464;11.964;2023-05-27T05:00:42;2.60;;;2.40;;
46931;SDS011;32670;51.464;11.964;2023-05-27T05:03:19;3.00;;;2.77;;
46931;SDS011;32670;51.464;11.964;2023-05-27T05:05:51;4.17;;;2.70;;
46931;SDS011;32670;51.464;11.964;2023-05-27T05:08:18;3.07;;;2.70;;
46931;SDS011;32670;51.464;11.964;2023-05-27T05:10:45;2.83;;;2.63;;
46931;SDS011;32670;51.464;11.964;2023-05-27T05:13:12;2.97;;;2.67;;
46931;SDS011;32670;51.464;11.964;2023-05-27T05:15:37;4.57;;;3.00;;
46931;SDS011;32670;51.464;11.964;2023-05-27T05:18:03;3.60;;;2.70;;
46931;SDS011;32670;51.464;11.964;2023-05-27T05:20:28;9.47;;;2.83;;
46931;SDS011;32670;51.464;11.964;2023-05-27T05:22:54;5.87;;;3.00;;
46931;SDS011;32670;51.464;11.964;2023-05-27T05:25:20;4.00;;;2.87;;
46931;SDS011;32670;51.464;11.964;2023-05-27T05:27:46;6.50;;;2.60;;
46931;SDS011;32670;51.464;11.964;2023-05-27T05:30:11;6.20;;;2.60;;
46931;SDS011;32670;51.464;11.964;2023-05-27T05:32:37;8.70;;;3.43;;
46931;SDS011;32670;51.464;11.964;2023-05-27T05:35:03;5.73;;;3.50;;
46931;SDS011;32670;51.464;11.964;2023-05-27T05:37:28;9.60;;;4.33;;
46931;SDS011;32670;51.464;11.964;2023-05-27T05:39:54;7.83;;;4.20;;
46931;SDS011;32670;51.464;11.964;2023-05-27T05:42:21;7.60;;;4.10;;
46931;SDS011;32670;51.464;11.964;2023-05-27T05:44:46;9.23;;;4.30;;
46931;SDS011;32670;51.464;11.964;2023-05-27T05:47:13;8.70;;;4.60;;
46931;SDS011;32670;51.464;11.964;2023-05-27T05:49:38;8.77;;;4.07;;
46931;SDS011;32670;51.464;11.964;2023-05-27T05:52:04;9.60;;;4.40;;
46931;SDS011;32670;51.464;11.964;2023-05-27T05:54:29;10.03;;;4.33;;
46931;SDS011;32670;51.464;11.964;2023-05-27T05:56:55;7.83;;;4.33;;
46931;SDS011;32670;51.464;11.964;2023-05-27T05:59:20;10.47;;;3.80;;
46931;SDS011;32670;51.464;11.964;2023-05-27T06:01:46;8.43;;;4.13;;
46931;SDS011;32670;51.464;11.964;2023-05-27T06:04:11;9.23;;;4.60;;
46931;SDS011;32670;51.464;11.964;2023-05-27T06:06:37;7.93;;;4.07;;
46931;SDS011;32670;51.464;11.964;2023-05-27T06:09:02;8.23;;;4.43;;
46931;SDS011;32670;51.464;11.964;2023-05-27T06:11:28;9.67;;;4.10;;
46931;SDS011;32670;51.464;11.964;2023-05-27T06:13:53;7.30;;;4.37;;
46931;SDS011;32670;51.464;11.964;2023-05-27T06:16:19;11.27;;;4.03;;
46931;SDS011;32670;51.464;11.964;2023-05-27T06:18:44;8.90;;;4.27;;
46931;SDS011;32670;51.464;11.964;2023-05-27T06:21:11;9.67;;;4.47;;
46931;SDS011;32670;51.464;11.964;2023-05-27T06:23:37;11.47;;;4.87;;
46931;SDS011;32670;51.464;11.964;2023-05-27T06:26:02;10.77;;;4.40;;
46931;SDS011;32670;51.464;11.964;2023-05-27T06:28:28;8.47;;;4.40;;
46931;SDS011;32670;51.464;11.964;2023-05-27T06:30:53;8.33;;;4.07;;
46931;SDS011;32670;51.464;11.964;2023-05-27T06:33:19;10.13;;;4.40;;
46931;SDS011;32670;51.464;11.964;2023-05-27T06:35:44;8.70;;;4.57;;
46931;SDS011;32670;51.464;11.964;2023-05-27T06:38:10;9.77;;;4.20;;
46931;SDS011;32670;51.464;11.964;2023-05-27T06:40:35;20.27;;;4.87;;
46931;SDS011;32670;51.464;11.964;2023-05-27T06:43:00;10.33;;;3.97;;
46931;SDS011;32670;51.464;11.964;2023-05-27T06:45:26;13.03;;;4.20;;
46931;SDS011;32670;51.464;11.964;2023-05-27T06:47:52;12.97;;;5.13;;
46931;SDS011;32670;51.464;11.964;2023-05-27T06:50:17;11.40;;;4.20;;
46931;SDS011;32670;51.464;11.964;2023-05-27T06:52:43;10.60;;;4.90;;
46931;SDS011;32670;51.464;11.964;2023-05-27T06:55:08;7.87;;;3.87;;
46931;SDS011;32670;51.464;11.964;2023-05-27T06:57:34;14.90;;;4.87;;
46931;SDS011;32670;51.464;11.964;2023-05-27T06:59:59;10.93;;;4.60;;
46931;SDS011;32670;51.464;11.964;2023-05-27T07:02:24;8.03;;;4.10;;
46931;SDS011;32670;51.464;11.964;2023-05-27T07:04:50;7.27;;;3.87;;
46931;SDS011;32670;51.464;11.964;2023-05-27T07:07:18;9.67;;;4.10;;
46931;SDS011;32670;51.464;11.964;2023-05-27T07:09:44;9.00;;;3.97;;
46931;SDS011;32670;51.464;11.964;2023-05-27T07:12:10;6.70;;;3.60;;
46931;SDS011;32670;51.464;11.964;2023-05-27T07:14:36;7.07;;;3.83;;
46931;SDS011;32670;51.464;11.964;2023-05-27T07:17:01;7.53;;;3.80;;
46931;SDS011;32670;51.464;11.964;2023-05-27T07:19:27;10.77;;;4.10;;
46931;SDS011;32670;51.464;11.964;2023-05-27T07:21:52;10.20;;;3.70;;
46931;SDS011;32670;51.464;11.964;2023-05-27T07:24:17;8.07;;;3.83;;
46931;SDS011;32670;51.464;11.964;2023-05-27T07:26:43;6.93;;;3.77;;
46931;SDS011;32670;51.464;11.964;2023-05-27T07:29:08;6.37;;;3.87;;
46931;SDS011;32670;51.464;11.964;2023-05-27T07:31:34;7.20;;;3.53;;
46931;SDS011;32670;51.464;11.964;2023-05-27T07:33:59;5.70;;;3.57;;
46931;SDS011;32670;51.464;11.964;2023-05-27T07:36:25;5.90;;;3.20;;
46931;SDS011;32670;51.464;11.964;2023-05-27T07:38:50;9.23;;;3.97;;
46931;SDS011;32670;51.464;11.964;2023-05-27T07:41:16;7.83;;;3.60;;
46931;SDS011;32670;51.464;11.964;2023-05-27T07:43:41;7.93;;;3.87;;
46931;SDS011;32670;51.464;11.964;2023-05-27T07:46:07;8.07;;;3.67;;
46931;SDS011;32670;51.464;11.964;2023-05-27T07:48:32;6.83;;;3.40;;
46931;SDS011;32670;51.464;11.964;2023-05-27T07:50:58;9.33;;;4.07;;
46931;SDS011;32670;51.464;11.964;2023-05-27T07:53:23;6.63;;;3.33;;
46931;SDS011;32670;51.464;11.964;2023-05-27T07:55:49;5.60;;;3.50;;
46931;SDS011;32670;51.464;11.964;2023-05-27T07:58:14;7.17;;;3.20;;
46931;SDS011;32670;51.464;11.964;2023-05-27T08:00:40;5.67;;;3.20;;
46931;SDS011;32670;51.464;11.964;2023-05-27T08:03:05;8.90;;;3.80;;
46931;SDS011;32670;51.464;11.964;2023-05-27T08:05:31;5.97;;;3.43;;
46931;SDS011;32670;51.464;11.964;2023-05-27T08:07:57;6.13;;;3.47;;
46931;SDS011;32670;51.464;11.964;2023-05-27T08:10:23;5.07;;;3.23;;
46931;SDS011;32670;51.464;11.964;2023-05-27T08:12:48;7.43;;;3.40;;
46931;SDS011;32670;51.464;11.964;2023-05-27T08:15:13;5.83;;;3.03;;
46931;SDS011;32670;51.464;11.964;2023-05-27T08:17:39;7.07;;;3.40;;
46931;SDS011;32670;51.464;11.964;2023-05-27T08:20:05;6.60;;;3.30;;
46931;SDS011;32670;51.464;11.964;2023-05-27T08:22:31;5.73;;;3.50;;
46931;SDS011;32670;51.464;11.964;2023-05-27T08:24:56;5.60;;;3.33;;
46931;SDS011;32670;51.464;11.964;2023-05-27T08:27:41;5.80;;;3.30;;
46931;SDS011;32670;51.464;11.964;2023-05-27T08:30:28;4.53;;;3.40;;
46931;SDS011;32670;51.464;11.964;2023-05-27T08:32:54;6.93;;;3.90;;
46931;SDS011;32670;51.464;11.964;2023-05-27T08:35:20;5.27;;;3.50;;
46931;SDS011;32670;51.464;11.964;2023-05-27T08:37:45;5.67;;;3.50;;
46931;SDS011;32670;51.464;11.964;2023-05-27T08:40:15;5.63;;;3.73;;
46931;SDS011;32670;51.464;11.964;2023-05-27T08:42:41;5.67;;;3.00;;
46931;SDS011;32670;51.464;11.964;2023-05-27T08:45:07;5.47;;;3.17;;
46931;SDS011;32670;51.464;11.964;2023-05-27T08:47:33;4.37;;;3.20;;
46931;SDS011;32670;51.464;11.964;2023-05-27T08:49:59;5.83;;;3.67;;
46931;SDS011;32670;51.464;11.964;2023-05-27T08:52:27;5.30;;;3.33;;
46931;SDS011;32670;51.464;11.964;2023-05-27T08:54:53;4.10;;;3.27;;
46931;SDS011;32670;51.464;11.964;2023-05-27T08:57:21;5.63;;;3.20;;
46931;SDS011;32670;51.464;11.964;2023-05-27T08:59:49;4.63;;;2.87;;
46931;SDS011;32670;51.464;11.964;2023-05-27T09:02:15;5.10;;;3.30;;
46931;SDS011;32670;51.464;11.964;2023-05-27T09:04:43;5.33;;;3.23;;
46931;SDS011;32670;51.464;11.964;2023-05-27T09:07:11;4.80;;;2.90;;
46931;SDS011;32670;51.464;11.964;2023-05-27T09:09:36;5.60;;;3.27;;
46931;SDS011;32670;51.464;11.964;2023-05-27T09:12:03;4.10;;;3.10;;
46931;SDS011;32670;51.464;11.964;2023-05-27T09:14:29;4.63;;;3.17;;
46931;SDS011;32670;51.464;11.964;2023-05-27T09:16:55;5.00;;;3.27;;
46931;SDS011;32670;51.464;11.964;2023-05-27T09:19:21;6.97;;;3.30;;
46931;SDS011;32670;51.464;11.964;2023-05-27T09:21:48;3.50;;;2.77;;
46931;SDS011;32670;51.464;11.964;2023-05-27T09:24:17;3.63;;;3.00;;
46931;SDS011;32670;51.464;11.964;2023-05-27T09:26:42;4.13;;;3.10;;
46931;SDS011;32670;51.464;11.964;2023-05-27T09:29:08;4.10;;;3.17;;
46931;SDS011;32670;51.464;11.964;2023-05-27T09:31:40;5.33;;;3.00;;
46931;SDS011;32670;51.464;11.964;2023-05-27T09:34:10;5.07;;;3.10;;
46931;SDS011;32670;51.464;11.964;2023-05-27T09:36:49;4.20;;;3.00;;
46931;SDS011;32670;51.464;11.964;2023-05-27T09:39:19;4.13;;;3.20;;
46931;SDS011;32670;51.464;11.964;2023-05-27T09:41:50;4.80;;;3.20;;
46931;SDS011;32670;51.464;11.964;2023-05-27T09:44:18;4.53;;;3.07;;
46931;SDS011;32670;51.464;11.964;2023-05-27T09:46:44;5.07;;;2.87;;
46931;SDS011;32670;51.464;11.964;2023-05-27T09:49:10;4.33;;;3.17;;
46931;SDS011;32670;51.464;11.964;2023-05-27T09:51:43;3.90;;;2.90;;
46931;SDS011;32670;51.464;11.964;2023-05-27T09:54:11;4.77;;;3.23;;
46931;SDS011;32670;51.464;11.964;2023-05-27T09:56:43;3.50;;;2.90;;
46931;SDS011;32670;51.464;11.964;2023-05-27T09:59:10;5.17;;;2.80;;
46931;SDS011;32670;51.464;11.964;2023-05-27T10:01:36;3.63;;;3.07;;
46931;SDS011;32670;51.464;11.964;2023-05-27T10:04:03;3.57;;;2.70;;
46931;SDS011;32670;51.464;11.964;2023-05-27T10:06:29;4.30;;;3.00;;
46931;SDS011;32670;51.464;11.964;2023-05-27T10:08:57;3.77;;;2.80;;
46931;SDS011;32670;51.464;11.964;2023-05-27T10:11:23;3.93;;;2.93;;
46931;SDS011;32670;51.464;11.964;2023-05-27T10:13:51;4.53;;;3.03;;
46931;SDS011;32670;51.464;11.964;2023-05-27T10:16:20;3.00;;;2.70;;
46931;SDS011;32670;51.464;11.964;2023-05-27T10:18:46;3.80;;;2.90;;
46931;SDS011;32670;51.464;11.964;2023-05-27T10:21:20;3.90;;;2.80;;
46931;SDS011;32670;51.464;11.964;2023-05-27T10:26:34;4.33;;;3.00;;
46931;SDS011;32670;51.464;11.964;2023-05-27T10:29:10;4.30;;;2.93;;
46931;SDS011;32670;51.464;11.964;2023-05-27T10:31:57;3.53;;;2.53;;
46931;SDS011;32670;51.464;11.964;2023-05-27T10:34:22;3.90;;;2.70;;
46931;SDS011;32670;51.464;11.964;2023-05-27T10:36:59;5.07;;;2.80;;
46931;SDS011;32670;51.464;11.964;2023-05-27T10:39:25;3.80;;;3.07;;
46931;SDS011;32670;51.464;11.964;2023-05-27T10:41:51;3.40;;;2.70;;
46931;SDS011;32670;51.464;11.964;2023-05-27T10:44:25;3.27;;;2.77;;
46931;SDS011;32670;51.464;11.964;2023-05-27T10:46:58;2.80;;;2.53;;
46931;SDS011;32670;51.464;11.964;2023-05-27T10:49:27;3.73;;;2.60;;
46931;SDS011;32670;51.464;11.964;2023-05-27T10:52:00;3.17;;;2.87;;
46931;SDS011;32670;51.464;11.964;2023-05-27T10:54:39;2.90;;;2.43;;
46931;SDS011;32670;51.464;11.964;2023-05-27T10:57:06;3.93;;;2.90;;
46931;SDS011;32670;51.464;11.964;2023-05-27T11:02:04;3.70;;;3.10;;
46931;SDS011;32670;51.464;11.964;2023-05-27T11:04:37;3.10;;;2.80;;
46931;SDS011;32670;51.464;11.964;2023-05-27T11:07:03;4.17;;;2.87;;
46931;SDS011;32670;51.464;11.964;2023-05-27T11:09:29;3.77;;;2.60;;
46931;SDS011;32670;51.464;11.964;2023-05-27T11:11:55;3.00;;;2.70;;
46931;SDS011;32670;51.464;11.964;2023-05-27T11:14:22;3.37;;;2.70;;
46931;SDS011;32670;51.464;11.964;2023-05-27T11:16:49;2.93;;;2.60;;
46931;SDS011;32670;51.464;11.964;2023-05-27T11:19:18;3.53;;;2.90;;
46931;SDS011;32670;51.464;11.964;2023-05-27T11:21:45;3.17;;;2.80;;
46931;SDS011;32670;51.464;11.964;2023-05-27T11:24:15;4.00;;;2.93;;
46931;SDS011;32670;51.464;11.964;2023-05-27T11:26:46;3.40;;;3.10;;
46931;SDS011;32670;51.464;11.964;2023-05-27T11:29:13;3.03;;;2.63;;
46931;SDS011;32670;51.464;11.964;2023-05-27T11:31:39;3.77;;;3.03;;
46931;SDS011;32670;51.464;11.964;2023-05-27T11:34:11;3.20;;;2.90;;
46931;SDS011;32670;51.464;11.964;2023-05-27T11:36:38;3.23;;;2.80;;
46931;SDS011;32670;51.464;11.964;2023-05-27T11:39:04;3.57;;;3.27;;
46931;SDS011;32670;51.464;11.964;2023-05-27T11:41:30;2.97;;;2.67;;
46931;SDS011;32670;51.464;11.964;2023-05-27T11:43:56;3.37;;;2.83;;
46931;SDS011;32670;51.464;11.964;2023-05-27T11:46:35;3.73;;;3.03;;
46931;SDS011;32670;51.464;11.964;2023-05-27T11:49:03;3.30;;;3.00;;
46931;SDS011;32670;51.464;11.964;2023-05-27T11:51:29;3.73;;;3.20;;
46931;SDS011;32670;51.464;11.964;2023-05-27T11:53:57;3.57;;;3.00;;
46931;SDS011;32670;51.464;11.964;2023-05-27T11:56:27;3.33;;;3.03;;
46931;SDS011;32670;51.464;11.964;2023-05-27T11:58:53;3.13;;;2.80;;
46931;SDS011;32670;51.464;11.964;2023-05-27T12:01:19;4.10;;;3.03;;
46931;SDS011;32670;51.464;11.964;2023-05-27T12:03:45;3.10;;;2.80;;
46931;SDS011;32670;51.464;11.964;2023-05-27T12:06:10;3.37;;;3.07;;
46931;SDS011;32670;51.464;11.964;2023-05-27T12:08:36;3.30;;;2.90;;
46931;SDS011;32670;51.464;11.964;2023-05-27T12:11:03;3.23;;;2.73;;
46931;SDS011;32670;51.464;11.964;2023-05-27T12:13:29;3.60;;;3.30;;
46931;SDS011;32670;51.464;11.964;2023-05-27T12:15:54;3.07;;;2.77;;
46931;SDS011;32670;51.464;11.964;2023-05-27T12:18:20;3.37;;;3.03;;
46931;SDS011;32670;51.464;11.964;2023-05-27T12:20:45;3.47;;;2.97;;
46931;SDS011;32670;51.464;11.964;2023-05-27T12:23:11;3.30;;;3.07;;
46931;SDS011;32670;51.464;11.964;2023-05-27T12:25:37;3.30;;;3.00;;
46931;SDS011;32670;51.464;11.964;2023-05-27T12:28:02;3.00;;;2.70;;
46931;SDS011;32670;51.464;11.964;2023-05-27T12:30:28;4.40;;;3.17;;
46931;SDS011;32670;51.464;11.964;2023-05-27T12:32:54;2.80;;;2.60;;
46931;SDS011;32670;51.464;11.964;2023-05-27T12:35:20;2.87;;;2.60;;
46931;SDS011;32670;51.464;11.964;2023-05-27T12:37:45;3.27;;;2.97;;
46931;SDS011;32670;51.464;11.964;2023-05-27T12:40:11;3.27;;;2.97;;
46931;SDS011;32670;51.464;11.964;2023-05-27T12:42:39;3.43;;;3.07;;
46931;SDS011;32670;51.464;11.964;2023-05-27T12:45:05;3.00;;;2.70;;
46931;SDS011;32670;51.464;11.964;2023-05-27T12:47:32;3.40;;;3.10;;
46931;SDS011;32670;51.464;11.964;2023-05-27T12:49:57;3.17;;;2.87;;
46931;SDS011;32670;51.464;11.964;2023-05-27T12:52:23;3.33;;;3.03;;
46931;SDS011;32670;51.464;11.964;2023-05-27T12:54:48;3.23;;;2.93;;
46931;SDS011;32670;51.464;11.964;2023-05-27T12:57:14;3.33;;;3.03;;
46931;SDS011;32670;51.464;11.964;2023-05-27T12:59:41;3.03;;;2.73;;
46931;SDS011;32670;51.464;11.964;2023-05-27T13:02:06;2.80;;;2.60;;
46931;SDS011;32670;51.464;11.964;2023-05-27T13:04:32;3.47;;;2.97;;
46931;SDS011;32670;51.464;11.964;2023-05-27T13:06:58;3.47;;;3.17;;
46931;SDS011;32670;51.464;11.964;2023-05-27T13:09:23;2.73;;;2.53;;
46931;SDS011;32670;51.464;11.964;2023-05-27T13:11:49;3.37;;;3.00;;
46931;SDS011;32670;51.464;11.964;2023-05-27T13:14:14;4.00;;;3.30;;
46931;SDS011;32670;51.464;11.964;2023-05-27T13:16:40;3.30;;;3.00;;
46931;SDS011;32670;51.464;11.964;2023-05-27T13:19:06;3.40;;;3.10;;
46931;SDS011;32670;51.464;11.964;2023-05-27T13:21:31;4.50;;;2.83;;
46931;SDS011;32670;51.464;11.964;2023-05-27T13:23:58;3.53;;;3.23;;
46931;SDS011;32670;51.464;11.964;2023-05-27T13:26:25;3.30;;;3.00;;
46931;SDS011;32670;51.464;11.964;2023-05-27T13:28:52;3.17;;;2.87;;
46931;SDS011;32670;51.464;11.964;2023-05-27T13:31:17;2.80;;;2.60;;
46931;SDS011;32670;51.464;11.964;2023-05-27T13:33:43;3.50;;;2.70;;
46931;SDS011;32670;51.464;11.964;2023-05-27T13:36:08;3.53;;;2.80;;
46931;SDS011;32670;51.464;11.964;2023-05-27T13:38:34;3.57;;;3.10;;
46931;SDS011;32670;51.464;11.964;2023-05-27T13:40:59;2.83;;;2.63;;
46931;SDS011;32670;51.464;11.964;2023-05-27T13:43:25;3.50;;;3.10;;
46931;SDS011;32670;51.464;11.964;2023-05-27T13:45:50;3.20;;;2.90;;
46931;SDS011;32670;51.464;11.964;2023-05-27T13:48:16;3.80;;;2.80;;
46931;SDS011;32670;51.464;11.964;2023-05-27T13:50:41;3.43;;;3.13;;
46931;SDS011;32670;51.464;11.964;2023-05-27T13:53:07;3.93;;;2.97;;
46931;SDS011;32670;51.464;11.964;2023-05-27T13:55:32;3.40;;;2.90;;
46931;SDS011;32670;51.464;11.964;2023-05-27T13:57:58;3.20;;;2.90;;
46931;SDS011;32670;51.464;11.964;2023-05-27T14:00:24;3.17;;;2.87;;
46931;SDS011;32670;51.464;11.964;2023-05-27T14:02:49;3.37;;;2.93;;
46931;SDS011;32670;51.464;11.964;2023-05-27T14:05:15;3.10;;;2.80;;
46931;SDS011;32670;51.464;11.964;2023-05-27T14:07:42;3.40;;;3.10;;
46931;SDS011;32670;51.464;11.964;2023-05-27T14:10:09;3.10;;;2.80;;
46931;SDS011;32670;51.464;11.964;2023-05-27T14:12:34;3.10;;;2.63;;
46931;SDS011;32670;51.464;11.964;2023-05-27T14:15:00;3.40;;;2.87;;
46931;SDS011;32670;51.464;11.964;2023-05-27T14:17:26;3.00;;;2.63;;
46931;SDS011;32670;51.464;11.964;2023-05-27T14:19:51;3.27;;;2.97;;
46931;SDS011;32670;51.464;11.964;2023-05-27T14:22:17;6.77;;;3.30;;
46931;SDS011;32670;51.464;11.964;2023-05-27T14:24:42;9.40;;;3.67;;
46931;SDS011;32670;51.464;11.964;2023-05-27T14:27:08;5.93;;;2.90;;
46931;SDS011;32670;51.464;11.964;2023-05-27T14:29:33;19.77;;;3.73;;
46931;SDS011;32670;51.464;11.964;2023-05-27T14:31:59;6.90;;;2.87;;
46931;SDS011;32670;51.464;11.964;2023-05-27T14:34:24;8.07;;;3.27;;
46931;SDS011;32670;51.464;11.964;2023-05-27T14:36:50;7.43;;;2.90;;
46931;SDS011;32670;51.464;11.964;2023-05-27T14:39:15;4.67;;;2.93;;